In Rescue
 
Open Full Screen Window  High Contrast Mode
Wind Gusting 00 knots
09
May 25, 2022 9:20 PM CDT
Weather Information
Wind Direction
  110 °
Wind Speed
  09 kt (10 mph)
Wind Gust
  00 kt (0 mph)
Altimeter
29.94 in
Visibility
10 SM
Temperature
16° C
61° F
Dewpoint
05° C
41° F
Humidity
48%
1hr Rain Fall
00.00 in.
24hr Rain Fall
00.00 in.
Sky Condition
Clear
VFR

METAR KHCO 260220Z AUTO 11009KT 10SM CLR 16/05 A2994 RMK AO2

FAA Disclaimer: The data displayed is for advisory purposes only and is not to be used for flight planning or operations.